createdAt,value
2019-01-26T00:02:15.916Z,46.08
2019-01-26T00:04:43.554Z,42.93
2019-01-26T00:07:11.228Z,49.50
2019-01-26T00:09:39.049Z,50.43
2019-01-26T00:12:06.239Z,49.98
2019-01-26T00:14:33.365Z,50.98
2019-01-26T00:17:00.566Z,49.10
2019-01-26T00:19:27.678Z,46.05
2019-01-26T00:21:55.496Z,44.05
2019-01-26T00:24:22.618Z,41.90
2019-01-26T00:26:49.402Z,37.28
2019-01-26T00:29:16.094Z,36.85
2019-01-26T00:31:42.756Z,37.03
2019-01-26T00:34:09.979Z,40.30
2019-01-26T00:36:37.777Z,38.58
2019-01-26T00:39:06.570Z,37.13
2019-01-26T00:41:34.335Z,38.00
2019-01-26T00:44:01.438Z,35.95
2019-01-26T00:46:28.691Z,36.38
2019-01-26T00:48:55.715Z,39.92
2019-01-26T00:51:22.812Z,37.45
2019-01-26T00:53:49.995Z,36.83
2019-01-26T00:56:17.171Z,35.83
2019-01-26T00:58:44.237Z,36.65
2019-01-26T01:01:12.053Z,41.02
2019-01-26T01:03:39.211Z,44.98
2019-01-26T01:06:06.400Z,44.70
2019-01-26T01:08:34.234Z,46.13
2019-01-26T01:11:02.003Z,45.15
2019-01-26T01:13:29.065Z,41.95
2019-01-26T01:15:56.264Z,37.38
2019-01-26T01:18:24.168Z,38.33
2019-01-26T01:20:51.303Z,35.60
2019-01-26T01:23:18.429Z,34.63
2019-01-26T01:25:45.359Z,33.88
2019-01-26T01:28:12.426Z,35.13
2019-01-26T01:30:40.191Z,32.28
2019-01-26T01:33:07.405Z,34.23
2019-01-26T01:35:34.440Z,35.05
2019-01-26T01:38:01.487Z,34.45
2019-01-26T01:40:29.323Z,35.92
2019-01-26T01:42:56.449Z,37.67
2019-01-26T01:45:23.596Z,35.73
2019-01-26T01:47:51.360Z,35.63
2019-01-26T01:50:18.385Z,37.35
2019-01-26T01:52:45.796Z,36.03
2019-01-26T01:55:12.871Z,37.85
2019-01-26T01:57:39.995Z,37.38
2019-01-26T02:00:07.693Z,36.68
2019-01-26T02:02:35.515Z,36.60
2019-01-26T02:05:02.544Z,37.38
2019-01-26T02:07:30.314Z,35.70
2019-01-26T02:09:57.454Z,37.50
2019-01-26T02:12:24.459Z,37.03
2019-01-26T02:14:51.630Z,39.73
2019-01-26T02:17:19.439Z,39.92
2019-01-26T02:19:46.627Z,38.75
2019-01-26T02:22:14.787Z,39.53
2019-01-26T02:24:42.539Z,38.65
2019-01-26T02:27:10.148Z,41.15
2019-01-26T02:29:37.283Z,42.53
2019-01-26T02:32:04.019Z,42.15
2019-01-26T02:34:31.871Z,43.13
2019-01-26T02:36:58.940Z,44.15
2019-01-26T02:39:26.105Z,43.05
2019-01-26T02:41:53.005Z,43.63
2019-01-26T02:44:20.128Z,43.05
2019-01-26T02:46:47.277Z,43.38
2019-01-26T02:49:14.527Z,46.08
2019-01-26T02:51:41.651Z,42.38
2019-01-26T02:54:08.338Z,43.73
2019-01-26T02:56:35.491Z,47.40
2019-01-26T02:59:02.357Z,46.02
2019-01-26T03:01:29.546Z,44.93
2019-01-26T03:03:56.560Z,45.28
2019-01-26T03:06:23.613Z,44.50
2019-01-26T03:08:51.539Z,44.67
2019-01-26T03:11:18.646Z,44.27
2019-01-26T03:13:45.727Z,44.60
2019-01-26T03:16:12.503Z,42.75
2019-01-26T03:18:39.593Z,45.35
2019-01-26T03:21:06.313Z,46.00
2019-01-26T03:23:33.471Z,43.60
2019-01-26T03:26:00.625Z,45.23
2019-01-26T03:28:28.317Z,43.30
2019-01-26T03:30:55.014Z,43.90
2019-01-26T03:33:22.026Z,44.88
2019-01-26T03:35:49.180Z,44.15
2019-01-26T03:38:15.838Z,44.48
2019-01-26T03:40:43.012Z,45.50
2019-01-26T03:43:09.678Z,47.20
2019-01-26T03:45:36.765Z,46.77
2019-01-26T03:48:03.481Z,45.95
2019-01-26T03:50:30.622Z,44.63
2019-01-26T03:52:57.292Z,45.95
2019-01-26T03:55:24.499Z,43.45
2019-01-26T03:57:51.517Z,47.83
2019-01-26T04:00:18.695Z,46.20
2019-01-26T04:02:45.860Z,44.83
2019-01-26T04:05:12.969Z,45.67
2019-01-26T04:07:40.684Z,44.00
2019-01-26T04:10:08.459Z,43.33
2019-01-26T04:12:36.079Z,44.65
2019-01-26T04:15:02.757Z,41.20
2019-01-26T04:17:29.862Z,40.17
2019-01-26T04:19:57.017Z,39.05
2019-01-26T04:22:24.143Z,42.53
2019-01-26T04:24:51.223Z,39.85
2019-01-26T04:27:18.362Z,41.45
2019-01-26T04:29:45.528Z,41.53
2019-01-26T04:32:12.256Z,41.53
2019-01-26T04:34:39.279Z,42.13
2019-01-26T04:37:06.436Z,40.38
2019-01-26T04:39:33.600Z,42.48
2019-01-26T04:42:00.294Z,39.88
2019-01-26T04:44:27.982Z,40.05
2019-01-26T04:46:54.655Z,39.38
2019-01-26T04:49:21.843Z,40.00
2019-01-26T04:51:48.964Z,38.15
2019-01-26T04:54:15.985Z,39.70
2019-01-26T04:56:43.576Z,38.73
2019-01-26T04:59:10.700Z,42.43
2019-01-26T05:01:37.881Z,39.83
2019-01-26T05:04:04.981Z,41.98
2019-01-26T05:06:31.683Z,40.67
2019-01-26T05:08:58.841Z,42.33
2019-01-26T05:11:26.703Z,43.17
2019-01-26T05:13:54.478Z,42.15
2019-01-26T05:16:21.600Z,43.00
2019-01-26T05:18:49.518Z,42.83
2019-01-26T05:21:16.247Z,41.98
2019-01-26T05:23:43.330Z,43.35
2019-01-26T05:26:11.141Z,40.70
2019-01-26T05:28:38.252Z,43.02
2019-01-26T05:31:04.912Z,41.42
2019-01-26T05:33:31.674Z,45.85
2019-01-26T05:35:58.788Z,43.50
2019-01-26T05:38:25.804Z,41.05
2019-01-26T05:40:52.973Z,41.53
2019-01-26T05:43:20.808Z,42.08
2019-01-26T05:45:48.552Z,39.80
2019-01-26T05:48:15.661Z,43.83
2019-01-26T05:50:42.780Z,40.63
2019-01-26T05:53:09.975Z,42.45
2019-01-26T05:55:37.862Z,41.85
2019-01-26T05:58:05.632Z,43.80
2019-01-26T06:00:32.940Z,40.58
2019-01-26T06:02:59.736Z,42.43
2019-01-26T06:05:26.834Z,42.30
2019-01-26T06:07:53.976Z,43.13
2019-01-26T06:10:21.213Z,40.67
2019-01-26T06:12:48.309Z,43.48
2019-01-26T06:15:15.040Z,42.17
2019-01-26T06:17:42.953Z,43.45
2019-01-26T06:20:09.632Z,44.53
2019-01-26T06:22:36.782Z,44.27
2019-01-26T06:25:03.941Z,46.58
2019-01-26T06:27:31.740Z,45.67
2019-01-26T06:29:58.401Z,45.50
2019-01-26T06:32:25.150Z,45.35
2019-01-26T06:34:53.000Z,44.08
2019-01-26T06:37:20.089Z,46.02
2019-01-26T06:39:47.343Z,43.87
2019-01-26T06:42:14.499Z,43.83
2019-01-26T06:44:41.663Z,41.80
2019-01-26T06:47:08.780Z,44.60
2019-01-26T06:49:35.936Z,45.00
2019-01-26T06:52:02.753Z,44.80
2019-01-26T06:54:30.493Z,44.93
2019-01-26T06:56:57.189Z,46.13
2019-01-26T06:59:24.373Z,42.67
2019-01-26T07:01:51.159Z,40.58
2019-01-26T07:04:17.873Z,43.08
2019-01-26T07:06:44.553Z,43.42
2019-01-26T07:09:12.254Z,46.15
2019-01-26T07:11:39.365Z,44.23
2019-01-26T07:14:07.208Z,41.48
2019-01-26T07:16:33.989Z,47.62
2019-01-26T07:19:01.159Z,46.88
2019-01-26T07:21:27.870Z,55.40
2019-01-26T07:23:55.045Z,53.55
2019-01-26T07:26:21.682Z,49.65
2019-01-26T07:28:48.819Z,50.03
2019-01-26T07:31:15.559Z,47.03
2019-01-26T07:33:42.706Z,51.45
2019-01-26T07:36:09.398Z,51.08
2019-01-26T07:38:36.603Z,50.48
2019-01-26T07:41:03.779Z,52.30
2019-01-26T07:43:30.933Z,51.75
2019-01-26T07:45:58.553Z,49.58
2019-01-26T07:48:25.269Z,48.83
2019-01-26T07:50:52.336Z,46.18
2019-01-26T07:53:19.430Z,47.13
2019-01-26T07:55:46.227Z,46.15
2019-01-26T07:58:13.366Z,48.75
2019-01-26T08:00:40.561Z,49.73
2019-01-26T08:03:07.739Z,51.73
2019-01-26T08:05:34.389Z,48.85
2019-01-26T08:08:02.035Z,50.33
2019-01-26T08:10:28.713Z,48.33
2019-01-26T08:12:56.539Z,48.10
2019-01-26T08:15:23.639Z,48.52
2019-01-26T08:17:50.688Z,46.37
2019-01-26T08:20:17.861Z,46.35
2019-01-26T08:22:44.991Z,47.65
2019-01-26T08:25:12.631Z,44.10
2019-01-26T08:27:39.751Z,44.00
2019-01-26T08:30:06.491Z,47.15
2019-01-26T08:32:33.260Z,43.70
2019-01-26T08:35:00.174Z,45.83
2019-01-26T08:37:26.883Z,40.55
2019-01-26T08:39:53.611Z,45.38
2019-01-26T08:42:20.775Z,41.88
2019-01-26T08:44:48.024Z,41.33
2019-01-26T08:47:14.673Z,39.73
2019-01-26T08:49:41.394Z,42.45
2019-01-26T08:52:08.541Z,43.70
2019-01-26T08:54:35.585Z,43.48
2019-01-26T08:57:02.286Z,43.42
2019-01-26T08:59:29.380Z,44.95
2019-01-26T09:01:56.406Z,47.43
2019-01-26T09:04:23.576Z,45.80
2019-01-26T09:06:50.626Z,43.68
2019-01-26T09:09:17.807Z,42.60
2019-01-26T09:11:44.933Z,42.67
2019-01-26T09:14:12.100Z,42.38
2019-01-26T09:16:39.231Z,41.28
2019-01-26T09:19:05.993Z,40.78
2019-01-26T09:21:32.647Z,43.25
2019-01-26T09:23:59.755Z,41.48
2019-01-26T09:26:26.525Z,44.50
2019-01-26T09:28:53.522Z,42.30
2019-01-26T09:31:20.602Z,43.45
2019-01-26T09:33:47.529Z,43.17
2019-01-26T09:36:14.264Z,38.48
2019-01-26T09:38:40.950Z,39.03
2019-01-26T09:41:08.048Z,38.85
2019-01-26T09:43:35.115Z,37.70
2019-01-26T09:46:01.821Z,36.17
2019-01-26T09:48:28.558Z,33.98
2019-01-26T09:50:55.652Z,34.40
2019-01-26T09:53:22.354Z,33.00
2019-01-26T09:55:49.113Z,34.15
2019-01-26T09:58:16.252Z,32.65
2019-01-26T10:00:43.301Z,33.92
2019-01-26T10:03:10.466Z,35.10
2019-01-26T10:05:37.177Z,33.70
2019-01-26T10:08:04.244Z,34.75
2019-01-26T10:10:31.441Z,34.83
2019-01-26T10:12:58.157Z,36.90
2019-01-26T10:15:25.188Z,33.92
2019-01-26T10:17:52.362Z,34.55
2019-01-26T10:20:19.521Z,36.10
2019-01-26T10:22:46.650Z,35.95
2019-01-26T10:25:13.829Z,33.88
2019-01-26T10:27:40.693Z,34.10
2019-01-26T10:30:07.893Z,33.80
2019-01-26T10:32:34.936Z,33.35
2019-01-26T10:35:02.165Z,33.40
2019-01-26T10:37:28.905Z,33.45
2019-01-26T10:39:55.566Z,33.88
2019-01-26T10:42:22.613Z,35.88
2019-01-26T10:44:49.831Z,33.53
2019-01-26T10:47:16.960Z,32.25
2019-01-26T10:49:44.080Z,32.83
2019-01-26T10:52:10.802Z,33.75
2019-01-26T10:54:38.642Z,32.90
2019-01-26T10:57:05.389Z,33.33
2019-01-26T10:59:32.495Z,33.18
2019-01-26T11:01:59.498Z,34.92
2019-01-26T11:04:26.267Z,34.30
2019-01-26T11:06:52.989Z,32.48
2019-01-26T11:09:20.149Z,31.10
2019-01-26T11:11:46.920Z,32.58
2019-01-26T11:14:13.582Z,29.77
2019-01-26T11:16:40.355Z,32.53
2019-01-26T11:19:07.931Z,31.90
2019-01-26T11:21:35.496Z,31.35
2019-01-26T11:24:02.269Z,32.42
2019-01-26T11:26:28.954Z,31.33
2019-01-26T11:28:56.023Z,32.33
2019-01-26T11:31:22.773Z,31.57
2019-01-26T11:33:49.918Z,28.83
2019-01-26T11:36:17.111Z,31.90
2019-01-26T11:38:44.399Z,32.40
2019-01-26T11:41:11.143Z,32.38
2019-01-26T11:43:37.841Z,31.50
2019-01-26T11:46:04.491Z,30.45
2019-01-26T11:48:31.320Z,32.58
2019-01-26T11:50:58.420Z,30.40
2019-01-26T11:53:25.479Z,29.48
2019-01-26T11:55:52.622Z,29.32
2019-01-26T11:58:19.692Z,29.52
2019-01-26T12:00:46.855Z,24.35
2019-01-26T12:03:13.961Z,29.60
2019-01-26T12:05:40.661Z,29.25
2019-01-26T12:08:07.770Z,29.72
2019-01-26T12:10:35.148Z,30.08
2019-01-26T12:13:02.269Z,28.12
2019-01-26T12:15:29.326Z,28.95
2019-01-26T12:17:56.465Z,27.07
2019-01-26T12:20:23.496Z,28.23
2019-01-26T12:22:50.559Z,29.42
2019-01-26T12:25:17.269Z,27.58
2019-01-26T12:27:44.351Z,29.35
2019-01-26T12:30:11.069Z,29.77
2019-01-26T12:32:37.781Z,32.08
2019-01-26T12:35:04.511Z,31.33
2019-01-26T12:37:31.186Z,30.55
2019-01-26T12:39:58.386Z,30.55
2019-01-26T12:42:25.492Z,34.58
2019-01-26T12:44:52.222Z,31.55
2019-01-26T12:47:18.867Z,28.92
2019-01-26T12:49:46.020Z,29.87
2019-01-26T12:52:13.073Z,30.50
2019-01-26T12:54:39.730Z,31.60
2019-01-26T12:57:06.983Z,33.73
2019-01-26T12:59:34.135Z,29.40
2019-01-26T13:02:00.829Z,32.67
2019-01-26T13:04:28.078Z,35.48
2019-01-26T13:06:55.172Z,31.90
2019-01-26T13:09:22.989Z,30.60
2019-01-26T13:11:50.220Z,31.52
2019-01-26T13:14:17.988Z,32.83
2019-01-26T13:16:45.107Z,31.48
2019-01-26T13:19:12.319Z,32.05
2019-01-26T13:21:39.902Z,30.62
2019-01-26T13:24:06.628Z,31.52
2019-01-26T13:26:33.710Z,33.90
2019-01-26T13:29:00.856Z,35.80
2019-01-26T13:31:28.035Z,34.53
2019-01-26T13:33:55.160Z,33.40
2019-01-26T13:36:22.315Z,33.02
2019-01-26T13:38:50.882Z,33.58
2019-01-26T13:41:17.587Z,34.85
2019-01-26T13:43:44.781Z,33.13
2019-01-26T13:46:11.928Z,34.83
2019-01-26T13:48:39.755Z,33.53
2019-01-26T13:51:12.962Z,34.08
2019-01-26T13:53:39.502Z,33.28
2019-01-26T13:56:03.499Z,31.57
2019-01-26T13:58:30.625Z,34.30
2019-01-26T14:00:57.306Z,30.57
2019-01-26T14:03:25.309Z,31.75
2019-01-26T14:05:52.027Z,32.42
2019-01-26T14:08:19.213Z,33.38
2019-01-26T14:10:46.432Z,33.15
2019-01-26T14:13:13.528Z,32.67
2019-01-26T14:15:40.226Z,33.88
2019-01-26T14:18:07.336Z,32.48
2019-01-26T14:20:34.022Z,30.43
2019-01-26T14:23:00.744Z,31.35
2019-01-26T14:25:27.473Z,31.68
2019-01-26T14:27:54.555Z,31.00
2019-01-26T14:30:21.275Z,26.35
2019-01-26T14:32:52.475Z,30.82
2019-01-26T14:35:16.316Z,31.15
2019-01-26T14:37:43.013Z,28.12
2019-01-26T14:40:10.145Z,29.50
2019-01-26T14:42:37.311Z,27.42
2019-01-26T14:45:04.444Z,29.82
2019-01-26T14:50:23.356Z,30.75
2019-01-26T14:52:50.489Z,31.37
2019-01-26T14:55:17.539Z,30.15
2019-01-26T14:57:44.571Z,32.05
2019-01-26T15:00:11.620Z,33.23
2019-01-26T15:02:38.819Z,33.50
2019-01-26T15:05:05.935Z,33.45
2019-01-26T15:07:32.980Z,33.53
2019-01-26T15:09:59.668Z,32.67
2019-01-26T15:12:26.911Z,34.60
2019-01-26T15:14:53.560Z,33.88
2019-01-26T15:17:20.263Z,32.98
2019-01-26T15:19:47.382Z,32.85
2019-01-26T15:22:14.071Z,30.05
2019-01-26T15:24:40.726Z,35.43
2019-01-26T15:27:07.496Z,35.73
2019-01-26T15:29:36.695Z,35.95
2019-01-26T15:32:03.907Z,33.30
2019-01-26T15:34:31.071Z,34.05
2019-01-26T15:36:58.200Z,33.08
2019-01-26T15:39:25.337Z,36.10
2019-01-26T15:41:52.046Z,33.80
2019-01-26T15:44:19.107Z,36.58
2019-01-26T15:46:46.266Z,37.78
2019-01-26T15:49:13.408Z,35.68
2019-01-26T15:51:41.082Z,35.75
2019-01-26T15:54:08.260Z,35.25
2019-01-26T15:56:35.406Z,34.92
2019-01-26T15:59:02.148Z,34.75
2019-01-26T16:01:29.799Z,34.38
2019-01-26T16:03:56.926Z,36.15
2019-01-26T16:06:23.646Z,34.73
2019-01-26T16:08:50.719Z,34.88
2019-01-26T16:11:17.412Z,35.68
2019-01-26T16:13:44.178Z,34.35
2019-01-26T16:16:11.257Z,36.38
2019-01-26T16:18:38.604Z,33.88
2019-01-26T16:21:05.802Z,34.18
2019-01-26T16:23:32.508Z,35.95
2019-01-26T16:25:59.377Z,35.88
2019-01-26T16:28:26.493Z,35.63
2019-01-26T16:30:53.689Z,34.75
2019-01-26T16:33:21.425Z,36.65
2019-01-26T16:35:49.195Z,34.25
2019-01-26T16:38:16.292Z,35.95
2019-01-26T16:40:42.953Z,35.95
2019-01-26T16:43:10.160Z,36.88
2019-01-26T16:45:37.786Z,37.15
2019-01-26T16:48:04.639Z,36.15
2019-01-26T16:50:31.765Z,36.70
2019-01-26T16:52:58.898Z,40.25
2019-01-26T16:55:26.154Z,39.08
2019-01-26T16:57:53.397Z,40.25
2019-01-26T17:00:20.457Z,42.73
2019-01-26T17:02:48.170Z,42.40
2019-01-26T17:05:16.016Z,40.95
2019-01-26T17:07:43.110Z,38.60
2019-01-26T17:10:10.853Z,39.40
2019-01-26T17:12:38.081Z,38.42
2019-01-26T17:15:05.770Z,37.98
2019-01-26T17:17:32.897Z,36.63
2019-01-26T17:20:02.310Z,37.33
2019-01-26T17:22:31.062Z,39.33
2019-01-26T17:24:58.855Z,37.60
2019-01-26T17:27:25.958Z,37.33
2019-01-26T17:30:09.324Z,38.98
2019-01-26T17:32:28.155Z,35.17
2019-01-26T17:34:55.828Z,40.28
2019-01-26T17:37:22.963Z,40.45
2019-01-26T17:39:49.634Z,41.20
2019-01-26T17:42:16.432Z,40.05
2019-01-26T17:44:43.501Z,42.95
2019-01-26T17:47:10.230Z,41.90
2019-01-26T17:49:37.393Z,38.25
2019-01-26T17:52:04.116Z,39.27
2019-01-26T17:54:30.795Z,35.80
2019-01-26T17:56:57.527Z,38.40
2019-01-26T17:59:24.640Z,38.67
2019-01-26T18:01:51.405Z,40.95
2019-01-26T18:04:18.577Z,36.10
2019-01-26T18:06:45.334Z,39.63
2019-01-26T18:09:12.115Z,37.00
2019-01-26T18:11:39.174Z,36.42
2019-01-26T18:14:05.939Z,40.00
2019-01-26T18:16:32.669Z,43.15
2019-01-26T18:18:59.315Z,43.17
2019-01-26T18:21:26.047Z,42.33
2019-01-26T18:23:53.114Z,41.18
2019-01-26T18:26:20.245Z,42.30
2019-01-26T18:28:47.020Z,38.83
2019-01-26T18:31:14.134Z,43.08
2019-01-26T18:33:40.855Z,44.05
2019-01-26T18:36:07.578Z,44.45
2019-01-26T18:38:34.312Z,44.38
2019-01-26T18:41:00.961Z,40.90
2019-01-26T18:43:28.156Z,40.08
2019-01-26T18:45:55.083Z,39.73
2019-01-26T18:48:22.147Z,40.63
2019-01-26T18:50:55.895Z,38.75
2019-01-26T18:53:18.574Z,38.50
2019-01-26T18:55:45.763Z,39.05
2019-01-26T18:58:12.955Z,39.27
2019-01-26T19:00:39.670Z,38.10
2019-01-26T19:03:06.473Z,38.13
2019-01-26T19:05:33.152Z,39.35
2019-01-26T19:07:59.872Z,39.70
2019-01-26T19:10:26.864Z,38.35
2019-01-26T19:12:54.247Z,37.90
2019-01-26T19:15:22.621Z,38.40
2019-01-26T19:18:01.739Z,38.35
2019-01-26T19:20:18.094Z,37.55
2019-01-26T19:22:44.873Z,40.35
2019-01-26T19:25:11.898Z,38.10
2019-01-26T19:27:45.181Z,36.28
2019-01-26T19:30:11.927Z,36.65
2019-01-26T19:32:39.863Z,37.08
2019-01-26T19:35:07.163Z,36.40
2019-01-26T19:37:34.397Z,34.15
2019-01-26T19:40:01.172Z,34.25
2019-01-26T19:42:27.847Z,32.78
2019-01-26T19:44:56.503Z,33.13
2019-01-26T19:47:23.580Z,36.93
2019-01-26T19:49:50.754Z,35.70
2019-01-26T19:52:17.498Z,37.28
2019-01-26T19:54:44.478Z,36.75
2019-01-26T19:57:11.207Z,35.35
2019-01-26T19:59:37.937Z,36.75
2019-01-26T20:02:04.598Z,35.45
2019-01-26T20:04:31.296Z,34.95
2019-01-26T20:06:58.069Z,36.85
2019-01-26T20:09:24.780Z,37.58
2019-01-26T20:11:51.457Z,38.70
2019-01-26T20:14:20.844Z,39.35
2019-01-26T20:16:47.945Z,35.95
2019-01-26T20:19:15.103Z,36.83
2019-01-26T20:21:42.265Z,37.38
2019-01-26T20:24:09.444Z,37.50
2019-01-26T20:26:36.546Z,36.73
2019-01-26T20:29:03.296Z,38.55
2019-01-26T20:31:30.109Z,35.78
2019-01-26T20:33:57.312Z,35.10
2019-01-26T20:36:23.992Z,36.00
2019-01-26T20:38:51.064Z,37.88
2019-01-26T20:41:18.385Z,36.13
2019-01-26T20:43:45.070Z,37.60
2019-01-26T20:46:11.876Z,36.45
2019-01-26T20:48:38.666Z,36.35
2019-01-26T20:51:05.355Z,38.10
2019-01-26T20:53:33.085Z,36.28
2019-01-26T20:56:00.311Z,34.35
2019-01-26T20:58:27.485Z,37.55
2019-01-26T21:00:54.732Z,36.20
2019-01-26T21:03:21.684Z,39.50
2019-01-26T21:05:48.400Z,38.73
2019-01-26T21:08:18.119Z,37.33
2019-01-26T21:10:44.804Z,37.70
2019-01-26T21:13:16.239Z,34.50
2019-01-26T21:15:40.352Z,39.15
2019-01-26T21:18:07.006Z,38.20
2019-01-26T21:20:33.716Z,39.78
2019-01-26T21:23:00.451Z,43.55
2019-01-26T21:25:28.389Z,42.70
2019-01-26T21:27:56.000Z,40.73
2019-01-26T21:30:23.141Z,39.20
2019-01-26T21:32:50.226Z,37.98
2019-01-26T21:35:16.964Z,38.70
2019-01-26T21:37:43.686Z,35.92
2019-01-26T21:40:10.755Z,36.85
2019-01-26T21:42:37.779Z,38.15
2019-01-26T21:45:04.973Z,39.50
2019-01-26T21:47:31.974Z,39.80
2019-01-26T21:49:59.031Z,41.40
2019-01-26T21:52:25.731Z,37.35
2019-01-26T21:54:53.319Z,41.95
2019-01-26T21:57:20.329Z,40.70
2019-01-26T21:59:47.452Z,40.98
2019-01-26T22:02:14.591Z,41.95
2019-01-26T22:04:41.876Z,47.25
2019-01-26T22:07:08.791Z,46.80
2019-01-26T22:09:37.058Z,48.92
2019-01-26T22:12:04.649Z,47.15
2019-01-26T22:14:31.420Z,48.80
2019-01-26T22:16:58.626Z,52.23
2019-01-26T22:19:25.791Z,56.75
2019-01-26T22:21:52.510Z,57.43
2019-01-26T22:24:19.228Z,55.60
2019-01-26T22:26:46.066Z,52.10
2019-01-26T22:29:13.242Z,50.23
2019-01-26T22:31:40.402Z,48.63
2019-01-26T22:34:07.545Z,44.73
2019-01-26T22:36:34.411Z,46.02
2019-01-26T22:40:31.658Z,41.77
2019-01-26T22:43:06.942Z,39.88
2019-01-26T22:45:42.331Z,43.52
2019-01-26T22:48:15.858Z,43.00
2019-01-26T22:50:49.679Z,43.85
2019-01-26T22:53:24.526Z,43.85
2019-01-26T22:55:59.924Z,41.25
2019-01-26T22:58:35.017Z,43.25
2019-01-26T23:01:30.642Z,41.70
2019-01-26T23:05:00.974Z,46.83
2019-01-26T23:08:02.352Z,43.28
2019-01-26T23:11:35.282Z,43.05
2019-01-26T23:14:49.189Z,43.70
2019-01-26T23:18:29.470Z,40.40
2019-01-26T23:21:54.646Z,40.33
2019-01-26T23:25:34.346Z,36.53
2019-01-26T23:29:07.141Z,36.50
2019-01-26T23:31:42.091Z,39.75
2019-01-26T23:34:16.472Z,41.40
2019-01-26T23:36:50.991Z,42.35
2019-01-26T23:39:25.010Z,43.05
2019-01-26T23:42:00.032Z,44.03
2019-01-26T23:44:34.967Z,38.75
2019-01-26T23:47:09.529Z,40.00
2019-01-26T23:49:44.359Z,37.48
2019-01-26T23:52:18.300Z,34.55
2019-01-26T23:54:53.763Z,35.40
2019-01-26T23:57:27.591Z,36.10
